sensor_id;sensor_type;location;lat;lon;timestamp;pressure;altitude;pressure_sealevel;temperature;humidity
18765;BME280;9511;54.242;12.448;2023-12-04T04:05:43;101829.13;;;-2.84;100.00
18765;BME280;9511;54.242;12.448;2023-12-04T04:08:11;101827.75;;;-2.81;100.00
18765;BME280;9511;54.242;12.448;2023-12-04T04:10:38;101818.59;;;-2.77;100.00
18765;BME280;9511;54.242;12.448;2023-12-04T04:13:05;101815.72;;;-2.80;100.00
18765;BME280;9511;54.242;12.448;2023-12-04T04:15:33;101816.47;;;-2.81;100.00
18765;BME280;9511;54.242;12.448;2023-12-04T04:18:00;101812.84;;;-2.83;100.00
18765;BME280;9511;54.242;12.448;2023-12-04T04:20:28;101806.88;;;-2.82;100.00
18765;BME280;9511;54.242;12.448;2023-12-04T04:22:56;101800.94;;;-2.81;100.00
18765;BME280;9511;54.242;12.448;2023-12-04T04:25:24;101801.44;;;-2.85;100.00
18765;BME280;9511;54.242;12.448;2023-12-04T04:27:51;101792.31;;;-2.90;100.00
18765;BME280;9511;54.242;12.448;2023-12-04T04:30:18;101784.09;;;-2.95;100.00
18765;BME280;9511;54.242;12.448;2023-12-04T04:32:46;101780.63;;;-3.04;100.00
18765;BME280;9511;54.242;12.448;2023-12-04T04:35:13;101787.69;;;-3.12;100.00
18765;BME280;9511;54.242;12.448;2023-12-04T04:37:40;101787.84;;;-3.19;100.00
18765;BME280;9511;54.242;12.448;2023-12-04T04:40:10;101790.63;;;-3.26;100.00
18765;BME280;9511;54.242;12.448;2023-12-04T04:42:37;101782.28;;;-3.32;100.00
18765;BME280;9511;54.242;12.448;2023-12-04T04:45:05;101788.22;;;-3.42;100.00
18765;BME280;9511;54.242;12.448;2023-12-04T04:47:32;101791.28;;;-3.46;100.00
18765;BME280;9511;54.242;12.448;2023-12-04T04:50:00;101785.50;;;-3.52;100.00
18765;BME280;9511;54.242;12.448;2023-12-04T04:52:27;101789.94;;;-3.60;100.00
18765;BME280;9511;54.242;12.448;2023-12-04T04:54:54;101793.75;;;-3.65;100.00
18765;BME280;9511;54.242;12.448;2023-12-04T04:57:23;101785.69;;;-3.68;100.00
18765;BME280;9511;54.242;12.448;2023-12-04T04:59:50;101779.16;;;-3.73;100.00
18765;BME280;9511;54.242;12.448;2023-12-04T05:02:18;101778.88;;;-3.76;100.00
18765;BME280;9511;54.242;12.448;2023-12-04T05:04:45;101784.03;;;-3.85;100.00
18765;BME280;9511;54.242;12.448;2023-12-04T05:07:12;101782.69;;;-3.90;100.00
18765;BME280;9511;54.242;12.448;2023-12-04T05:09:40;101786.31;;;-3.96;100.00
18765;BME280;9511;54.242;12.448;2023-12-04T05:12:07;101771.28;;;-4.01;100.00
18765;BME280;9511;54.242;12.448;2023-12-04T05:14:36;101764.28;;;-4.02;100.00
18765;BME280;9511;54.242;12.448;2023-12-04T05:17:03;101762.47;;;-4.03;100.00
18765;BME280;9511;54.242;12.448;2023-12-04T05:19:31;101752.44;;;-4.08;100.00
18765;BME280;9511;54.242;12.448;2023-12-04T05:21:58;101753.34;;;-4.08;100.00
18765;BME280;9511;54.242;12.448;2023-12-04T05:24:26;101745.75;;;-4.06;100.00
18765;BME280;9511;54.242;12.448;2023-12-04T05:26:53;101746.66;;;-4.06;100.00
18765;BME280;9511;54.242;12.448;2023-12-04T05:29:20;101759.75;;;-4.13;100.00
18765;BME280;9511;54.242;12.448;2023-12-04T05:31:49;101757.91;;;-4.22;100.00
18765;BME280;9511;54.242;12.448;2023-12-04T05:34:16;101758.22;;;-4.28;100.00
18765;BME280;9511;54.242;12.448;2023-12-04T05:36:44;101750.75;;;-4.25;100.00
18765;BME280;9511;54.242;12.448;2023-12-04T05:39:11;101747.56;;;-4.31;100.00
18765;BME280;9511;54.242;12.448;2023-12-04T05:41:39;101745.44;;;-4.27;100.00
18765;BME280;9511;54.242;12.448;2023-12-04T05:44:06;101742.56;;;-4.12;100.00
18765;BME280;9511;54.242;12.448;2023-12-04T05:46:33;101745.47;;;-4.18;100.00
18765;BME280;9511;54.242;12.448;2023-12-04T05:49:02;101745.47;;;-4.18;100.00
18765;BME280;9511;54.242;12.448;2023-12-04T05:51:30;101745.13;;;-4.21;100.00
18765;BME280;9511;54.242;12.448;2023-12-04T05:53:57;101739.06;;;-4.21;100.00
18765;BME280;9511;54.242;12.448;2023-12-04T05:56:24;101728.88;;;-4.20;100.00
18765;BME280;9511;54.242;12.448;2023-12-04T05:58:52;101725.41;;;-4.12;100.00
18765;BME280;9511;54.242;12.448;2023-12-04T06:01:19;101720.22;;;-4.12;100.00
18765;BME280;9511;54.242;12.448;2023-12-04T06:03:47;101725.09;;;-4.15;100.00
18765;BME280;9511;54.242;12.448;2023-12-04T06:06:17;101722.63;;;-4.13;100.00
18765;BME280;9511;54.242;12.448;2023-12-04T06:08:45;101725.53;;;-4.19;100.00
18765;BME280;9511;54.242;12.448;2023-12-04T06:11:13;101725.69;;;-4.26;100.00
18765;BME280;9511;54.242;12.448;2023-12-04T06:13:40;101720.38;;;-4.28;100.00
18765;BME280;9511;54.242;12.448;2023-12-04T06:16:09;101707.94;;;-4.23;100.00
18765;BME280;9511;54.242;12.448;2023-12-04T06:18:36;101716.28;;;-4.17;100.00
18765;BME280;9511;54.242;12.448;2023-12-04T06:21:04;101713.25;;;-4.13;100.00
18765;BME280;9511;54.242;12.448;2023-12-04T06:23:34;101711.41;;;-4.05;100.00
18765;BME280;9511;54.242;12.448;2023-12-04T06:26:02;101707.13;;;-4.13;100.00
18765;BME280;9511;54.242;12.448;2023-12-04T06:28:30;101715.34;;;-4.09;100.00
18765;BME280;9511;54.242;12.448;2023-12-04T06:30:59;101709.91;;;-4.12;100.00
18765;BME280;9511;54.242;12.448;2023-12-04T06:33:31;101710.19;;;-4.09;100.00
18765;BME280;9511;54.242;12.448;2023-12-04T06:35:58;101703.94;;;-4.02;100.00
18765;BME280;9511;54.242;12.448;2023-12-04T06:38:26;101701.38;;;-4.11;100.00
18765;BME280;9511;54.242;12.448;2023-12-04T06:40:57;101698.03;;;-4.10;100.00
18765;BME280;9511;54.242;12.448;2023-12-04T06:43:25;101698.03;;;-4.10;100.00
18765;BME280;9511;54.242;12.448;2023-12-04T06:45:54;101701.84;;;-4.06;100.00
18765;BME280;9511;54.242;12.448;2023-12-04T06:48:23;101698.34;;;-4.07;100.00
18765;BME280;9511;54.242;12.448;2023-12-04T06:50:51;101699.84;;;-4.09;100.00
18765;BME280;9511;54.242;12.448;2023-12-04T06:53:18;101699.84;;;-4.09;100.00
18765;BME280;9511;54.242;12.448;2023-12-04T06:55:45;101698.72;;;-3.85;100.00
18765;BME280;9511;54.242;12.448;2023-12-04T06:58:14;101707.13;;;-3.96;100.00
18765;BME280;9511;54.242;12.448;2023-12-04T07:00:41;101704.72;;;-3.94;100.00
18765;BME280;9511;54.242;12.448;2023-12-04T07:03:08;101712.28;;;-3.87;100.00
18765;BME280;9511;54.242;12.448;2023-12-04T07:05:36;101702.88;;;-3.95;100.00
18765;BME280;9511;54.242;12.448;2023-12-04T07:08:03;101705.63;;;-4.11;100.00
18765;BME280;9511;54.242;12.448;2023-12-04T07:10:30;101700.00;;;-4.16;100.00
18765;BME280;9511;54.242;12.448;2023-12-04T07:12:58;101712.19;;;-4.23;100.00
18765;BME280;9511;54.242;12.448;2023-12-04T07:15:26;101707.44;;;-4.19;100.00
18765;BME280;9511;54.242;12.448;2023-12-04T07:17:54;101706.53;;;-4.11;100.00
18765;BME280;9511;54.242;12.448;2023-12-04T07:20:21;101706.84;;;-4.16;100.00
18765;BME280;9511;54.242;12.448;2023-12-04T07:22:49;101707.44;;;-4.19;100.00
18765;BME280;9511;54.242;12.448;2023-12-04T07:25:17;101705.03;;;-4.26;100.00
18765;BME280;9511;54.242;12.448;2023-12-04T07:27:44;101691.94;;;-4.19;100.00
18765;BME280;9511;54.242;12.448;2023-12-04T07:30:13;101698.34;;;-4.15;100.00
18765;BME280;9511;54.242;12.448;2023-12-04T07:32:41;101693.66;;;-4.28;100.00
18765;BME280;9511;54.242;12.448;2023-12-04T07:35:09;101697.00;;;-4.29;100.00
18765;BME280;9511;54.242;12.448;2023-12-04T07:37:37;101687.13;;;-4.33;100.00
18765;BME280;9511;54.242;12.448;2023-12-04T07:40:05;101695.59;;;-4.25;100.00
18765;BME280;9511;54.242;12.448;2023-12-04T07:42:34;101690.44;;;-4.25;100.00
18765;BME280;9511;54.242;12.448;2023-12-04T07:45:02;101683.91;;;-4.31;100.00
18765;BME280;9511;54.242;12.448;2023-12-04T07:47:30;101694.56;;;-4.28;100.00
18765;BME280;9511;54.242;12.448;2023-12-04T07:49:58;101688.34;;;-4.30;100.00
18765;BME280;9511;54.242;12.448;2023-12-04T07:52:27;101686.50;;;-4.22;100.00
18765;BME280;9511;54.242;12.448;2023-12-04T07:54:54;101689.84;;;-4.23;100.00
18765;BME280;9511;54.242;12.448;2023-12-04T07:57:22;101701.69;;;-4.25;100.00
18765;BME280;9511;54.242;12.448;2023-12-04T07:59:49;101700.47;;;-4.20;100.00
18765;BME280;9511;54.242;12.448;2023-12-04T08:02:17;101701.69;;;-4.25;100.00
18765;BME280;9511;54.242;12.448;2023-12-04T08:04:44;101694.06;;;-4.15;100.00
18765;BME280;9511;54.242;12.448;2023-12-04T08:07:13;101694.06;;;-4.15;100.00
18765;BME280;9511;54.242;12.448;2023-12-04T08:09:41;101693.91;;;-4.08;100.00
18765;BME280;9511;54.242;12.448;2023-12-04T08:12:08;101685.84;;;-4.02;100.00
18765;BME280;9511;54.242;12.448;2023-12-04T08:14:36;101687.97;;;-3.98;100.00
18765;BME280;9511;54.242;12.448;2023-12-04T08:17:03;101679.19;;;-4.00;100.00
18765;BME280;9511;54.242;12.448;2023-12-04T08:19:31;101689.03;;;-3.96;100.00
18765;BME280;9511;54.242;12.448;2023-12-04T08:21:58;101684.16;;;-4.02;100.00
18765;BME280;9511;54.242;12.448;2023-12-04T08:24:28;101682.53;;;-4.01;100.00
18765;BME280;9511;54.242;12.448;2023-12-04T08:26:56;101682.53;;;-4.10;100.00
18765;BME280;9511;54.242;12.448;2023-12-04T08:29:23;101677.69;;;-4.07;100.00
18765;BME280;9511;54.242;12.448;2023-12-04T08:31:51;101681.28;;;-3.96;100.00
18765;BME280;9511;54.242;12.448;2023-12-04T08:34:18;101677.50;;;-3.99;100.00
18765;BME280;9511;54.242;12.448;2023-12-04T08:36:45;101676.13;;;-4.05;100.00
18765;BME280;9511;54.242;12.448;2023-12-04T08:39:13;101679.47;;;-3.97;100.00
18765;BME280;9511;54.242;12.448;2023-12-04T08:41:44;101681.91;;;-3.98;100.00
18765;BME280;9511;54.242;12.448;2023-12-04T08:44:12;101675.66;;;-3.92;100.00
18765;BME280;9511;54.242;12.448;2023-12-04T08:46:39;101675.06;;;-3.98;100.00
18765;BME280;9511;54.242;12.448;2023-12-04T08:49:07;101685.41;;;-3.98;100.00
18765;BME280;9511;54.242;12.448;2023-12-04T08:51:34;101689.78;;;-3.88;100.00
18765;BME280;9511;54.242;12.448;2023-12-04T08:54:01;101684.91;;;-3.85;100.00
18765;BME280;9511;54.242;12.448;2023-12-04T08:56:29;101682.31;;;-3.85;100.00
18765;BME280;9511;54.242;12.448;2023-12-04T08:58:58;101684.75;;;-3.78;100.00
18765;BME280;9511;54.242;12.448;2023-12-04T09:01:25;101681.41;;;-3.77;100.00
18765;BME280;9511;54.242;12.448;2023-12-04T09:03:55;101678.22;;;-3.83;100.00
18765;BME280;9511;54.242;12.448;2023-12-04T09:06:22;101674.88;;;-3.82;100.00
18765;BME280;9511;54.242;12.448;2023-12-04T09:08:49;101674.69;;;-3.75;100.00
18765;BME280;9511;54.242;12.448;2023-12-04T09:11:17;101674.41;;;-3.78;100.00
18765;BME280;9511;54.242;12.448;2023-12-04T09:13:44;101670.28;;;-3.76;100.00
18765;BME280;9511;54.242;12.448;2023-12-04T09:16:13;101670.44;;;-3.75;100.00
18765;BME280;9511;54.242;12.448;2023-12-04T09:18:40;101682.13;;;-3.69;100.00
18765;BME280;9511;54.242;12.448;2023-12-04T09:21:08;101682.13;;;-3.69;100.00
18765;BME280;9511;54.242;12.448;2023-12-04T09:23:36;101677.88;;;-3.69;100.00
18765;BME280;9511;54.242;12.448;2023-12-04T09:26:03;101678.19;;;-3.66;100.00
18765;BME280;9511;54.242;12.448;2023-12-04T09:28:31;101666.44;;;-3.62;100.00
18765;BME280;9511;54.242;12.448;2023-12-04T09:30:58;101665.06;;;-3.59;100.00
18765;BME280;9511;54.242;12.448;2023-12-04T09:33:27;101670.09;;;-3.60;100.00
18765;BME280;9511;54.242;12.448;2023-12-04T09:35:54;101662.94;;;-3.63;100.00
18765;BME280;9511;54.242;12.448;2023-12-04T09:38:22;101661.72;;;-3.58;100.00
18765;BME280;9511;54.242;12.448;2023-12-04T09:40:50;101659.25;;;-3.48;100.00
18765;BME280;9511;54.242;12.448;2023-12-04T09:43:19;101655.59;;;-3.50;100.00
18765;BME280;9511;54.242;12.448;2023-12-04T09:45:47;101641.91;;;-3.49;100.00
18765;BME280;9511;54.242;12.448;2023-12-04T09:48:14;101633.06;;;-3.51;100.00
18765;BME280;9511;54.242;12.448;2023-12-04T09:50:43;101626.19;;;-3.41;100.00
18765;BME280;9511;54.242;12.448;2023-12-04T09:53:14;101640.81;;;-3.42;100.00
18765;BME280;9511;54.242;12.448;2023-12-04T09:55:41;101632.13;;;-3.42;100.00
18765;BME280;9511;54.242;12.448;2023-12-04T09:58:10;101624.84;;;-3.47;100.00
18765;BME280;9511;54.242;12.448;2023-12-04T10:00:41;101623.13;;;-3.37;100.00
18765;BME280;9511;54.242;12.448;2023-12-04T10:03:10;101617.78;;;-3.39;100.00
18765;BME280;9511;54.242;12.448;2023-12-04T10:05:44;101613.81;;;-3.27;100.00
18765;BME280;9511;54.242;12.448;2023-12-04T10:08:12;101617.13;;;-3.28;100.00
18765;BME280;9511;54.242;12.448;2023-12-04T10:10:40;101605.03;;;-3.37;100.00
18765;BME280;9511;54.242;12.448;2023-12-04T10:13:07;101607.97;;;-3.24;100.00
18765;BME280;9511;54.242;12.448;2023-12-04T10:15:46;101599.34;;;-3.33;100.00
18765;BME280;9511;54.242;12.448;2023-12-04T10:18:24;101601.13;;;-3.24;100.00
18765;BME280;9511;54.242;12.448;2023-12-04T10:20:53;101592.47;;;-3.05;100.00
18765;BME280;9511;54.242;12.448;2023-12-04T10:23:21;101604.16;;;-3.19;100.00
18765;BME280;9511;54.242;12.448;2023-12-04T10:25:49;101603.81;;;-3.13;100.00
18765;BME280;9511;54.242;12.448;2023-12-04T10:28:17;101596.19;;;-3.12;100.00
18765;BME280;9511;54.242;12.448;2023-12-04T10:30:45;101604.50;;;-3.06;100.00
18765;BME280;9511;54.242;12.448;2023-12-04T10:33:13;101605.38;;;-2.97;100.00
18765;BME280;9511;54.242;12.448;2023-12-04T10:35:41;101594.31;;;-2.85;100.00
18765;BME280;9511;54.242;12.448;2023-12-04T10:38:11;101588.44;;;-2.93;100.00
18765;BME280;9511;54.242;12.448;2023-12-04T10:40:40;101581.53;;;-3.03;100.00
18765;BME280;9511;54.242;12.448;2023-12-04T10:43:13;101578.78;;;-2.85;100.00
18765;BME280;9511;54.242;12.448;2023-12-04T10:45:43;101572.63;;;-2.77;100.00
18765;BME280;9511;54.242;12.448;2023-12-04T10:48:12;101567.31;;;-2.98;100.00
18765;BME280;9511;54.242;12.448;2023-12-04T10:50:41;101563.53;;;-2.82;100.00
18765;BME280;9511;54.242;12.448;2023-12-04T10:53:12;101560.72;;;-2.94;100.00
18765;BME280;9511;54.242;12.448;2023-12-04T10:55:40;101567.09;;;-2.90;100.00
18765;BME280;9511;54.242;12.448;2023-12-04T10:58:09;101563.88;;;-2.88;100.00
18765;BME280;9511;54.242;12.448;2023-12-04T11:00:40;101561.22;;;-2.79;100.00
18765;BME280;9511;54.242;12.448;2023-12-04T11:03:09;101565.53;;;-2.70;100.00
18765;BME280;9511;54.242;12.448;2023-12-04T11:05:39;101554.91;;;-2.73;100.00
18765;BME280;9511;54.242;12.448;2023-12-04T11:08:09;101550.41;;;-2.65;100.00
18765;BME280;9511;54.242;12.448;2023-12-04T11:10:44;101549.63;;;-2.64;100.00
18765;BME280;9511;54.242;12.448;2023-12-04T11:13:17;101541.13;;;-2.63;100.00
18765;BME280;9511;54.242;12.448;2023-12-04T11:15:47;101538.47;;;-2.73;99.43
18765;BME280;9511;54.242;12.448;2023-12-04T11:18:16;101539.03;;;-2.67;98.95
18765;BME280;9511;54.242;12.448;2023-12-04T11:20:51;101534.41;;;-2.61;99.21
18765;BME280;9511;54.242;12.448;2023-12-04T11:23:22;101533.50;;;-2.61;98.71
18765;BME280;9511;54.242;12.448;2023-12-04T11:25:51;101532.09;;;-2.58;98.48
18765;BME280;9511;54.242;12.448;2023-12-04T11:28:20;101530.91;;;-2.61;97.56
18765;BME280;9511;54.242;12.448;2023-12-04T11:30:47;101549.94;;;-2.61;97.73
18765;BME280;9511;54.242;12.448;2023-12-04T11:33:16;101538.72;;;-2.51;97.42
18765;BME280;9511;54.242;12.448;2023-12-04T11:35:44;101524.59;;;-2.55;97.22
18765;BME280;9511;54.242;12.448;2023-12-04T11:38:13;101512.81;;;-2.51;96.97
18765;BME280;9511;54.242;12.448;2023-12-04T11:40:42;101514.31;;;-2.34;96.62
18765;BME280;9511;54.242;12.448;2023-12-04T11:43:24;101513.53;;;-2.33;96.33
18765;BME280;9511;54.242;12.448;2023-12-04T11:45:52;101515.59;;;-2.39;96.34
18765;BME280;9511;54.242;12.448;2023-12-04T11:48:22;101512.75;;;-2.32;95.12
18765;BME280;9511;54.242;12.448;2023-12-04T11:50:50;101501.13;;;-2.27;95.52
18765;BME280;9511;54.242;12.448;2023-12-04T11:53:19;101501.03;;;-2.08;95.07
18765;BME280;9511;54.242;12.448;2023-12-04T11:55:46;101498.81;;;-2.14;94.43
18765;BME280;9511;54.242;12.448;2023-12-04T11:58:13;101501.94;;;-2.08;94.35
18765;BME280;9511;54.242;12.448;2023-12-04T12:00:44;101498.56;;;-2.17;93.99
18765;BME280;9511;54.242;12.448;2023-12-04T12:03:14;101490.41;;;-2.01;93.08
18765;BME280;9511;54.242;12.448;2023-12-04T12:05:42;101478.13;;;-2.04;92.90
18765;BME280;9511;54.242;12.448;2023-12-04T12:08:10;101483.41;;;-2.02;92.53
18765;BME280;9511;54.242;12.448;2023-12-04T12:10:37;101476.69;;;-2.10;92.75
18765;BME280;9511;54.242;12.448;2023-12-04T12:13:05;101475.25;;;-2.07;92.45
18765;BME280;9511;54.242;12.448;2023-12-04T12:15:33;101478.38;;;-2.11;92.32
18765;BME280;9511;54.242;12.448;2023-12-04T12:18:02;101478.56;;;-2.18;92.20
18765;BME280;9511;54.242;12.448;2023-12-04T12:20:30;101468.91;;;-2.10;91.95
18765;BME280;9511;54.242;12.448;2023-12-04T12:22:58;101458.16;;;-2.05;91.96
18765;BME280;9511;54.242;12.448;2023-12-04T12:25:25;101439.75;;;-1.98;91.20
18765;BME280;9511;54.242;12.448;2023-12-04T12:27:53;101427.28;;;-2.02;91.48
18765;BME280;9511;54.242;12.448;2023-12-04T12:30:20;101428.84;;;-2.04;91.55
18765;BME280;9511;54.242;12.448;2023-12-04T12:32:50;101418.09;;;-2.08;91.71
18765;BME280;9511;54.242;12.448;2023-12-04T12:35:19;101413.56;;;-2.11;91.60
18765;BME280;9511;54.242;12.448;2023-12-04T12:37:46;101418.72;;;-2.21;91.95
18765;BME280;9511;54.242;12.448;2023-12-04T12:40:13;101415.72;;;-2.26;92.11
18765;BME280;9511;54.242;12.448;2023-12-04T12:42:41;101420.78;;;-2.27;92.44
18765;BME280;9511;54.242;12.448;2023-12-04T12:45:10;101418.19;;;-2.27;92.58
18765;BME280;9511;54.242;12.448;2023-12-04T12:47:40;101417.31;;;-2.28;92.54
18765;BME280;9511;54.242;12.448;2023-12-04T12:50:09;101401.22;;;-2.34;92.74
18765;BME280;9511;54.242;12.448;2023-12-04T12:52:39;101403.91;;;-2.43;93.19
18765;BME280;9511;54.242;12.448;2023-12-04T12:55:07;101404.69;;;-2.44;92.99
18765;BME280;9511;54.242;12.448;2023-12-04T12:57:35;101396.44;;;-2.39;93.08
18765;BME280;9511;54.242;12.448;2023-12-04T13:00:06;101394.59;;;-2.51;92.98
18765;BME280;9511;54.242;12.448;2023-12-04T13:02:35;101398.31;;;-2.47;93.22
18765;BME280;9511;54.242;12.448;2023-12-04T13:05:04;101395.09;;;-2.55;93.32
18765;BME280;9511;54.242;12.448;2023-12-04T13:07:31;101401.44;;;-2.51;93.67
18765;BME280;9511;54.242;12.448;2023-12-04T13:10:00;101381.34;;;-2.54;93.82
18765;BME280;9511;54.242;12.448;2023-12-04T13:12:31;101382.91;;;-2.56;93.80
18765;BME280;9511;54.242;12.448;2023-12-04T13:14:59;101381.34;;;-2.54;94.04
18765;BME280;9511;54.242;12.448;2023-12-04T13:17:26;101374.13;;;-2.58;94.29
18765;BME280;9511;54.242;12.448;2023-12-04T13:19:54;101367.91;;;-2.50;93.77
18765;BME280;9511;54.242;12.448;2023-12-04T13:22:21;101400.22;;;-2.65;93.96
18765;BME280;9511;54.242;12.448;2023-12-04T13:24:48;101417.72;;;-2.62;94.16
18765;BME280;9511;54.242;12.448;2023-12-04T13:27:17;101415.81;;;-2.55;94.86
18765;BME280;9511;54.242;12.448;2023-12-04T13:29:45;101394.19;;;-2.55;95.02
18765;BME280;9511;54.242;12.448;2023-12-04T13:32:16;101399.72;;;-2.61;94.76
18765;BME280;9511;54.242;12.448;2023-12-04T13:34:43;101390.28;;;-2.60;94.46
18765;BME280;9511;54.242;12.448;2023-12-04T13:37:11;101381.84;;;-2.68;95.04
18765;BME280;9511;54.242;12.448;2023-12-04T13:39:39;101372.66;;;-2.64;95.25
18765;BME280;9511;54.242;12.448;2023-12-04T13:42:15;101373.06;;;-2.60;95.01
18765;BME280;9511;54.242;12.448;2023-12-04T13:45:01;101389.75;;;-2.67;94.84
18765;BME280;9511;54.242;12.448;2023-12-04T13:47:31;101367.88;;;-2.60;95.63
18765;BME280;9511;54.242;12.448;2023-12-04T13:50:00;101357.50;;;-2.60;95.21
18765;BME280;9511;54.242;12.448;2023-12-04T13:52:27;101359.06;;;-2.62;95.24
18765;BME280;9511;54.242;12.448;2023-12-04T13:54:59;101351.81;;;-2.66;94.99
18765;BME280;9511;54.242;12.448;2023-12-04T13:57:26;101354.69;;;-2.63;94.63
18765;BME280;9511;54.242;12.448;2023-12-04T13:59:58;101351.56;;;-2.59;94.76
18765;BME280;9511;54.242;12.448;2023-12-04T14:02:27;101340.66;;;-2.65;94.99
18765;BME280;9511;54.242;12.448;2023-12-04T14:04:54;101355.44;;;-2.64;95.17
18765;BME280;9511;54.242;12.448;2023-12-04T14:07:22;101356.50;;;-2.62;95.03
18765;BME280;9511;54.242;12.448;2023-12-04T14:09:50;101351.31;;;-2.62;95.10
18765;BME280;9511;54.242;12.448;2023-12-04T14:12:18;101336.00;;;-2.59;95.44
18765;BME280;9511;54.242;12.448;2023-12-04T14:14:45;101340.03;;;-2.62;95.46
18765;BME280;9511;54.242;12.448;2023-12-04T14:17:13;101329.56;;;-2.54;95.08
18765;BME280;9511;54.242;12.448;2023-12-04T14:19:41;101331.38;;;-2.53;94.90
18765;BME280;9511;54.242;12.448;2023-12-04T14:22:09;101337.06;;;-2.67;95.00
18765;BME280;9511;54.242;12.448;2023-12-04T14:24:36;101325.50;;;-2.71;94.97
18765;BME280;9511;54.242;12.448;2023-12-04T14:27:04;101328.63;;;-2.75;94.96
18765;BME280;9511;54.242;12.448;2023-12-04T14:29:32;101328.25;;;-2.69;95.52
18765;BME280;9511;54.242;12.448;2023-12-04T14:31:59;101330.31;;;-2.65;95.41
18765;BME280;9511;54.242;12.448;2023-12-04T14:34:27;101326.69;;;-2.67;94.89
18765;BME280;9511;54.242;12.448;2023-12-04T14:36:55;101327.31;;;-2.70;95.27
18765;BME280;9511;54.242;12.448;2023-12-04T14:39:23;101329.53;;;-2.74;95.23
18765;BME280;9511;54.242;12.448;2023-12-04T14:41:50;101330.56;;;-2.72;95.27
18765;BME280;9511;54.242;12.448;2023-12-04T14:44:18;101326.94;;;-2.74;95.39
18765;BME280;9511;54.242;12.448;2023-12-04T14:46:45;101329.53;;;-2.74;95.27
18765;BME280;9511;54.242;12.448;2023-12-04T14:49:12;101323.28;;;-2.76;95.89
18765;BME280;9511;54.242;12.448;2023-12-04T14:51:40;101324.19;;;-2.76;95.64
18765;BME280;9511;54.242;12.448;2023-12-04T14:54:09;101322.75;;;-2.82;96.00
18765;BME280;9511;54.242;12.448;2023-12-04T14:56:42;101322.28;;;-2.78;96.27
18765;BME280;9511;54.242;12.448;2023-12-04T14:59:29;101322.16;;;-2.80;95.74
18765;BME280;9511;54.242;12.448;2023-12-04T15:02:14;101314.50;;;-2.78;96.04
18765;BME280;9511;54.242;12.448;2023-12-04T15:05:27;101315.69;;;-2.75;96.33
18765;BME280;9511;54.242;12.448;2023-12-04T15:08:16;101310.34;;;-2.76;95.89
18765;BME280;9511;54.242;12.448;2023-12-04T15:11:14;101319.81;;;-2.77;96.06
18765;BME280;9511;54.242;12.448;2023-12-04T15:14:06;101324.72;;;-2.80;96.54
18765;BME280;9511;54.242;12.448;2023-12-04T15:16:45;101317.38;;;-2.75;96.56
18765;BME280;9511;54.242;12.448;2023-12-04T15:19:15;101319.56;;;-2.80;97.07
18765;BME280;9511;54.242;12.448;2023-12-04T15:22:03;101322.75;;;-2.82;96.79
18765;BME280;9511;54.242;12.448;2023-12-04T15:24:31;101321.09;;;-2.82;97.14
18765;BME280;9511;54.242;12.448;2023-12-04T15:27:00;101313.84;;;-2.86;97.53
18765;BME280;9511;54.242;12.448;2023-12-04T15:29:27;101311.38;;;-2.84;97.42
18765;BME280;9511;54.242;12.448;2023-12-04T15:31:56;101314.09;;;-2.83;97.51
18765;BME280;9511;54.242;12.448;2023-12-04T15:34:22;101310.88;;;-2.80;97.41
18765;BME280;9511;54.242;12.448;2023-12-04T15:36:50;101309.31;;;-2.78;97.36
18765;BME280;9511;54.242;12.448;2023-12-04T15:39:16;101308.28;;;-2.80;97.29
18765;BME280;9511;54.242;12.448;2023-12-04T15:41:44;101307.41;;;-2.81;97.60
18765;BME280;9511;54.242;12.448;2023-12-04T15:44:12;101305.94;;;-2.77;97.65
18765;BME280;9511;54.242;12.448;2023-12-04T15:46:39;101300.78;;;-2.77;97.54
18765;BME280;9511;54.242;12.448;2023-12-04T15:49:06;101305.44;;;-2.73;97.87
18765;BME280;9511;54.242;12.448;2023-12-04T15:51:33;101301.19;;;-2.73;97.41
18765;BME280;9511;54.242;12.448;2023-12-04T15:54:00;101301.56;;;-2.78;97.81
18765;BME280;9511;54.242;12.448;2023-12-04T15:56:27;101296.91;;;-2.72;97.80
18765;BME280;9511;54.242;12.448;2023-12-04T15:58:53;101297.19;;;-2.69;97.67
18765;BME280;9511;54.242;12.448;2023-12-04T16:01:22;101290.81;;;-2.73;97.93
18765;BME280;9511;54.242;12.448;2023-12-04T16:03:49;101290.94;;;-2.71;98.03
18765;BME280;9511;54.242;12.448;2023-12-04T16:06:16;101293.16;;;-2.65;98.13
18765;BME280;9511;54.242;12.448;2023-12-04T16:08:44;101281.38;;;-2.62;98.07
18765;BME280;9511;54.242;12.448;2023-12-04T16:11:12;101282.16;;;-2.63;97.99
18765;BME280;9511;54.242;12.448;2023-12-04T16:13:40;101283.97;;;-2.62;97.79
18765;BME280;9511;54.242;12.448;2023-12-04T16:16:07;101280.59;;;-2.61;97.53
18765;BME280;9511;54.242;12.448;2023-12-04T16:18:36;101280.88;;;-2.58;98.09
18765;BME280;9511;54.242;12.448;2023-12-04T16:21:04;101278.41;;;-2.56;97.52
18765;BME280;9511;54.242;12.448;2023-12-04T16:23:32;101283.22;;;-2.51;97.71
18765;BME280;9511;54.242;12.448;2023-12-04T16:25:59;101270.78;;;-2.55;97.90
18765;BME280;9511;54.242;12.448;2023-12-04T16:28:27;101283.84;;;-2.53;97.88
18765;BME280;9511;54.242;12.448;2023-12-04T16:30:54;101276.84;;;-2.54;98.13
18765;BME280;9511;54.242;12.448;2023-12-04T16:33:22;101276.22;;;-2.52;98.42
18765;BME280;9511;54.242;12.448;2023-12-04T16:35:51;101275.94;;;-2.55;98.33
18765;BME280;9511;54.242;12.448;2023-12-04T16:38:18;101267.78;;;-2.49;98.06
18765;BME280;9511;54.242;12.448;2023-12-04T16:40:46;101277.75;;;-2.54;98.34
18765;BME280;9511;54.242;12.448;2023-12-04T16:43:13;101278.03;;;-2.51;98.32
18765;BME280;9511;54.242;12.448;2023-12-04T16:45:40;101287.09;;;-2.46;98.52
18765;BME280;9511;54.242;12.448;2023-12-04T16:48:08;101279.56;;;-2.43;98.36
18765;BME280;9511;54.242;12.448;2023-12-04T16:50:36;101270.66;;;-2.46;98.83
18765;BME280;9511;54.242;12.448;2023-12-04T16:53:05;101272.06;;;-2.50;98.52
18765;BME280;9511;54.242;12.448;2023-12-04T16:55:32;101280.09;;;-2.47;98.51
18765;BME280;9511;54.242;12.448;2023-12-04T16:58:00;101277.13;;;-2.51;98.85